Time;durP1;ratioP1;P1;durP2;ratioP2;P2;SDS_P1;SDS_P2;PMS_P1;PMS_P2;Temp;Humidity;BMP_temperature;BMP_pressure;BME280_temperature;BME280_humidity;BME280_pressure;Samples;Min_cycle;Max_cycle;Signal;HPM_P1;HPM_P2
2023/05/19 00:00:39;;;;;;;8.73;3.20;;;;;;;13.81;57.04;100366.91;5075670;28;20028;-73
2023/05/19 00:03:07;;;;;;;6.90;2.50;;;;;;;13.80;57.06;100359.88;5076812;28;20028;-73
2023/05/19 00:05:35;;;;;;;9.73;2.58;;;;;;;13.77;56.95;100356.38;5087247;28;20484;-73
2023/05/19 00:08:03;;;;;;;7.07;2.75;;;;;;;13.77;57.01;100355.53;5076481;28;20047;-73
2023/05/19 00:10:30;;;;;;;9.70;3.07;;;;;;;13.73;57.11;100346.75;5085483;28;20020;-73
2023/05/19 00:12:57;;;;;;;9.07;2.80;;;;;;;13.75;57.08;100347.59;5076302;28;20400;-72
2023/05/19 00:15:23;;;;;;;9.20;2.95;;;;;;;13.78;57.16;100344.03;5076691;28;20191;-73
2023/05/19 00:17:48;;;;;;;8.60;2.50;;;;;;;13.80;56.95;100347.53;5074992;28;20455;-73
2023/05/19 00:20:14;;;;;;;8.57;2.73;;;;;;;13.83;56.95;100349.25;5075333;28;20627;-73
2023/05/19 00:22:42;;;;;;;7.47;2.43;;;;;;;13.83;56.93;100343.94;5077048;28;20437;-72
2023/05/19 00:25:08;;;;;;;6.93;2.20;;;;;;;13.86;56.95;100349.19;5089512;28;20262;-72
2023/05/19 00:27:34;;;;;;;6.70;2.45;;;;;;;13.86;56.96;100344.78;5074918;28;20457;-72
2023/05/19 00:29:59;;;;;;;7.47;2.30;;;;;;;13.86;56.93;100343.91;5076387;28;20039;-73
2023/05/19 00:32:25;;;;;;;8.23;2.60;;;;;;;13.84;56.91;100341.28;5086663;28;20016;-73
2023/05/19 00:34:50;;;;;;;9.07;2.30;;;;;;;13.85;56.91;100344.78;5076513;28;20024;-72
2023/05/19 00:37:15;;;;;;;8.40;2.53;;;;;;;13.86;56.93;100338.59;5075051;28;20457;-73
2023/05/19 00:39:41;;;;;;;9.23;2.63;;;;;;;13.85;57.02;100336.84;5079619;28;20036;-73
2023/05/19 00:42:06;;;;;;;7.60;2.67;;;;;;;13.83;57.12;100336.00;5082202;28;20567;-72
2023/05/19 00:44:32;;;;;;;7.38;2.60;;;;;;;13.83;57.30;100336.00;5076540;28;20452;-72
2023/05/19 00:46:57;;;;;;;7.80;2.60;;;;;;;13.81;56.94;100338.69;5083892;28;20028;-72
2023/05/19 00:49:22;;;;;;;10.30;2.60;;;;;;;13.81;57.17;100335.16;5096545;28;20082;-73
2023/05/19 00:51:48;;;;;;;8.13;2.53;;;;;;;13.81;57.18;100329.88;5096330;28;20081;-73
2023/05/19 00:54:15;;;;;;;8.95;2.28;;;;;;;13.81;57.29;100335.16;5079425;28;20024;-72
2023/05/19 00:56:40;;;;;;;8.57;2.90;;;;;;;13.81;57.21;100332.50;5082972;28;20124;-73
2023/05/19 00:59:06;;;;;;;10.60;2.60;;;;;;;13.80;57.26;100326.38;5082887;28;20107;-73
2023/05/19 01:01:32;;;;;;;8.30;2.40;;;;;;;13.78;57.37;100325.53;5096382;28;20032;-72
2023/05/19 01:03:57;;;;;;;11.47;3.17;;;;;;;13.77;57.40;100323.78;5085869;28;20582;-73
2023/05/19 01:06:24;;;;;;;10.07;2.42;;;;;;;13.76;57.37;100327.31;5088199;28;20502;-73
2023/05/19 01:08:50;;;;;;;7.20;2.55;;;;;;;13.77;57.45;100321.97;5076265;28;20099;-72
2023/05/19 01:11:16;;;;;;;8.40;2.60;;;;;;;13.77;57.44;100319.34;5083048;28;20449;-73
2023/05/19 01:13:42;;;;;;;9.77;2.63;;;;;;;13.80;57.66;100322.81;5075801;28;20107;-72
2023/05/19 01:16:21;;;;;;;7.95;2.20;;;;;;;13.76;57.76;100322.03;5075840;28;20380;-73
2023/05/19 01:18:57;;;;;;;9.63;2.60;;;;;;;13.72;57.87;100315.91;5076154;28;20057;-72
2023/05/19 01:21:35;;;;;;;8.98;2.60;;;;;;;13.71;57.88;100314.16;5078077;28;20036;-73
2023/05/19 01:24:10;;;;;;;7.53;2.60;;;;;;;13.66;58.37;100304.53;5079797;28;20093;-72
2023/05/19 01:26:54;;;;;;;9.55;3.25;;;;;;;13.59;58.71;100309.94;5079798;28;20058;-72
2023/05/19 01:29:22;;;;;;;9.32;2.65;;;;;;;13.57;58.16;100311.72;5079653;28;20036;-72
2023/05/19 01:31:49;;;;;;;6.17;2.17;;;;;;;13.56;58.35;100304.69;5084008;28;20515;-73
2023/05/19 01:34:16;;;;;;;8.05;2.50;;;;;;;13.57;58.54;100305.53;5084356;28;20021;-72
2023/05/19 01:36:43;;;;;;;9.52;2.58;;;;;;;13.56;58.48;100307.34;5079646;28;20388;-73
2023/05/19 01:39:09;;;;;;;7.80;1.95;;;;;;;13.56;58.63;100309.09;5079599;28;20063;-72
2023/05/19 01:41:36;;;;;;;9.03;2.60;;;;;;;13.57;58.55;100306.44;5089897;28;20024;-73
2023/05/19 01:44:02;;;;;;;7.32;2.25;;;;;;;13.57;58.68;100300.25;5093030;28;20032;-73
2023/05/19 01:46:28;;;;;;;6.57;2.50;;;;;;;13.56;58.86;100304.69;5099836;28;20426;-73
2023/05/19 01:48:53;;;;;;;9.82;2.40;;;;;;;13.53;59.22;100298.56;5099539;28;20416;-73
2023/05/19 01:51:19;;;;;;;7.60;2.55;;;;;;;13.52;59.13;100303.00;5099624;28;20027;-73
2023/05/19 01:53:44;;;;;;;7.63;2.43;;;;;;;13.51;59.08;100305.66;5083411;28;20052;-73
2023/05/19 01:56:14;;;;;;;8.73;2.60;;;;;;;13.53;59.25;100301.22;5090448;28;20028;-72
2023/05/19 01:59:02;;;;;;;7.40;2.72;;;;;;;13.52;59.89;100302.09;5079028;28;20108;-73
2023/05/19 02:01:36;;;;;;;8.50;2.38;;;;;;;13.52;59.68;100308.28;5079078;28;20044;-72
2023/05/19 02:04:13;;;;;;;7.97;2.77;;;;;;;13.50;59.81;100299.47;5086205;28;20070;-72
2023/05/19 02:06:54;;;;;;;10.73;2.22;;;;;;;13.49;60.52;100303.91;5081458;28;20044;-73
2023/05/19 02:09:25;;;;;;;10.70;2.70;;;;;;;13.51;59.91;100295.06;5081331;28;20385;-73
2023/05/19 02:12:08;;;;;;;12.30;2.95;;;;;;;13.48;60.79;100296.88;5081422;28;20165;-73
2023/05/19 02:14:53;;;;;;;10.82;2.58;;;;;;;13.45;61.52;100286.34;5092016;28;20053;-73
2023/05/19 02:17:22;;;;;;;10.30;2.97;;;;;;;13.43;61.08;100290.78;5097905;28;20035;-72
2023/05/19 02:19:47;;;;;;;8.70;2.70;;;;;;;13.39;61.40;100281.13;5097770;28;20069;-72
2023/05/19 02:22:12;;;;;;;10.40;2.87;;;;;;;13.36;61.57;100283.78;5099024;28;20123;-72
2023/05/19 02:24:38;;;;;;;11.23;3.30;;;;;;;13.31;62.63;100277.69;5098968;28;20032;-72
2023/05/19 02:27:04;;;;;;;9.93;3.13;;;;;;;13.26;62.79;100274.25;5098857;28;20057;-72
2023/05/19 02:29:29;;;;;;;11.52;3.10;;;;;;;13.18;63.33;100280.53;5097512;28;20023;-72
2023/05/19 02:31:54;;;;;;;12.03;2.80;;;;;;;13.17;63.32;100281.44;5090653;28;20037;-72
2023/05/19 02:34:20;;;;;;;11.07;3.20;;;;;;;13.12;63.79;100277.97;5078470;28;20128;-72
2023/05/19 02:36:48;;;;;;;9.93;2.95;;;;;;;13.11;63.91;100284.16;5078744;28;20024;-72
2023/05/19 02:39:14;;;;;;;9.03;2.80;;;;;;;13.10;64.04;100273.63;5084451;28;20020;-71
2023/05/19 02:41:40;;;;;;;10.65;2.90;;;;;;;13.09;64.02;100283.28;5088067;28;20480;-72
2023/05/19 02:44:06;;;;;;;11.18;3.10;;;;;;;13.10;64.13;100284.19;5078182;28;20118;-72
2023/05/19 02:46:32;;;;;;;9.00;3.20;;;;;;;13.03;64.79;100273.72;5078332;28;20029;-72
2023/05/19 02:48:57;;;;;;;9.18;2.97;;;;;;;13.00;64.78;100275.50;5077999;28;20052;-72
2023/05/19 02:51:22;;;;;;;11.27;3.00;;;;;;;12.98;65.14;100269.38;5081543;28;20032;-72
2023/05/19 02:53:48;;;;;;;10.80;3.07;;;;;;;12.96;65.09;100271.16;5084859;28;20023;-72
2023/05/19 02:56:13;;;;;;;10.18;3.17;;;;;;;12.96;65.19;100265.88;5087250;28;20496;-72
2023/05/19 02:58:39;;;;;;;10.03;3.47;;;;;;;12.94;65.03;100272.97;5084518;28;20583;-72
2023/05/19 03:01:04;;;;;;;9.57;3.13;;;;;;;12.95;65.18;100269.41;5098335;28;20396;-72
2023/05/19 03:03:30;;;;;;;11.33;3.00;;;;;;;12.95;65.42;100274.72;5089220;28;20028;-72
2023/05/19 03:05:55;;;;;;;11.93;3.35;;;;;;;12.95;65.35;100265.00;5085439;28;20028;-72
2023/05/19 03:08:20;;;;;;;9.60;3.20;;;;;;;12.97;65.32;100264.97;5079164;28;20078;-72
2023/05/19 03:10:46;;;;;;;7.63;2.90;;;;;;;12.98;65.28;100269.38;5084108;28;20548;-72
2023/05/19 03:13:12;;;;;;;8.52;2.85;;;;;;;12.98;65.55;100266.72;5077604;28;20025;-72
2023/05/19 03:15:37;;;;;;;8.37;2.90;;;;;;;12.98;65.34;100264.94;5077777;28;20028;-72
2023/05/19 03:18:03;;;;;;;8.17;3.30;;;;;;;12.99;65.61;100271.13;5077597;28;20381;-72
2023/05/19 03:20:29;;;;;;;9.10;2.90;;;;;;;12.98;66.04;100270.22;5077787;28;20554;-72
2023/05/19 03:22:54;;;;;;;8.45;2.72;;;;;;;12.97;65.39;100262.34;5077819;28;20016;-72
2023/05/19 03:25:20;;;;;;;8.95;3.10;;;;;;;12.96;65.94;100265.88;5077723;28;20473;-72
2023/05/19 03:27:45;;;;;;;9.83;3.40;;;;;;;12.96;65.95;100260.59;5077222;28;20479;-72
2023/05/19 03:30:11;;;;;;;11.57;3.23;;;;;;;12.95;66.07;100266.78;5076293;28;20036;-72
2023/05/19 03:32:37;;;;;;;12.65;3.17;;;;;;;12.94;66.31;100267.69;5087700;28;20028;-72
2023/05/19 03:35:05;;;;;;;9.90;3.13;;;;;;;12.94;66.09;100265.03;5079672;28;20063;-72
2023/05/19 03:37:33;;;;;;;10.02;3.28;;;;;;;12.95;66.12;100261.50;5097704;28;20024;-72
2023/05/19 03:39:59;;;;;;;9.55;3.40;;;;;;;12.96;66.29;100272.03;5097456;28;20034;-72
2023/05/19 03:42:25;;;;;;;12.57;3.37;;;;;;;12.94;66.43;100265.88;5079360;28;20063;-72
2023/05/19 03:44:50;;;;;;;8.75;3.28;;;;;;;12.90;66.41;100262.44;5076944;28;20067;-72
2023/05/19 03:47:16;;;;;;;12.67;3.27;;;;;;;12.88;66.50;100263.34;5077057;28;20044;-72
2023/05/19 03:49:41;;;;;;;8.57;3.10;;;;;;;12.83;66.94;100270.47;5077007;28;20056;-72
2023/05/19 03:52:07;;;;;;;9.02;3.15;;;;;;;12.82;66.69;100272.22;5084003;28;20066;-72
2023/05/19 03:54:32;;;;;;;10.23;3.03;;;;;;;12.80;66.90;100270.50;5082623;28;20058;-72
2023/05/19 03:56:58;;;;;;;11.07;3.30;;;;;;;12.77;66.89;100272.25;5097075;28;20043;-72
2023/05/19 03:59:23;;;;;;;10.37;3.40;;;;;;;12.76;67.11;100274.94;5097469;28;20016;-72
2023/05/19 04:01:50;;;;;;;12.80;3.00;;;;;;;12.76;67.08;100267.88;5097119;28;20111;-72
2023/05/19 04:04:15;;;;;;;11.77;3.20;;;;;;;12.78;67.23;100273.16;5088009;28;20427;-72
2023/05/19 04:06:40;;;;;;;10.53;3.17;;;;;;;12.77;67.00;100281.97;5080617;28;20019;-72
2023/05/19 04:09:13;;;;;;;12.77;3.57;;;;;;;12.76;67.75;100278.44;5077039;28;20774;-72
2023/05/19 04:11:39;;;;;;;10.80;3.58;;;;;;;12.73;67.55;100281.13;5077149;28;20457;-72
2023/05/19 04:14:05;;;;;;;10.07;3.30;;;;;;;12.68;67.91;100276.81;5076683;28;20028;-72
2023/05/19 04:16:31;;;;;;;9.48;3.22;;;;;;;12.64;68.21;100274.19;5076703;28;20025;-72
2023/05/19 04:18:56;;;;;;;12.35;3.85;;;;;;;12.61;68.79;100276.88;5076937;28;20055;-72
2023/05/19 04:21:22;;;;;;;13.67;3.20;;;;;;;12.57;68.54;100276.94;5076838;28;20032;-72
2023/05/19 04:23:47;;;;;;;11.00;3.93;;;;;;;12.53;68.85;100273.47;5075609;28;20025;-72
2023/05/19 04:26:18;;;;;;;10.37;3.40;;;;;;;12.52;68.64;100274.34;5076489;28;20381;-72
2023/05/19 04:28:43;;;;;;;11.77;3.50;;;;;;;12.52;68.93;100266.44;5076754;28;20428;-72
2023/05/19 04:31:11;;;;;;;12.27;4.00;;;;;;;12.51;69.18;100267.31;5077430;28;20028;-72
2023/05/19 04:33:37;;;;;;;9.50;3.43;;;;;;;12.48;69.29;100262.09;5076729;28;20028;-72
2023/05/19 04:36:07;;;;;;;10.75;3.40;;;;;;;12.45;69.30;100265.63;5093397;28;20653;-72
2023/05/19 04:38:33;;;;;;;10.10;3.70;;;;;;;12.44;69.65;100268.31;5096970;28;20039;-72
2023/05/19 04:41:00;;;;;;;13.80;3.40;;;;;;;12.44;69.55;100268.31;5092651;28;20028;-72
2023/05/19 04:43:26;;;;;;;14.97;4.00;;;;;;;12.44;69.92;100269.16;5076539;28;20054;-72
2023/05/19 04:45:51;;;;;;;11.27;3.70;;;;;;;12.44;69.86;100268.31;5076364;28;20473;-72
2023/05/19 04:48:17;;;;;;;11.77;3.90;;;;;;;12.42;69.60;100275.34;5074943;28;20532;-72
2023/05/19 04:50:42;;;;;;;10.37;3.40;;;;;;;12.41;69.75;100273.59;5080322;28;20345;-72
2023/05/19 04:53:10;;;;;;;10.80;3.57;;;;;;;12.41;69.60;100270.94;5085909;28;20028;-72
2023/05/19 04:55:37;;;;;;;12.07;3.70;;;;;;;12.43;69.61;100272.69;5087244;28;20119;-72
2023/05/19 04:58:03;;;;;;;11.90;3.95;;;;;;;12.42;70.01;100268.31;5080425;28;20557;-72
2023/05/19 05:00:28;;;;;;;10.43;3.67;;;;;;;12.42;70.00;100270.06;5079002;28;20028;-72
2023/05/19 05:02:56;;;;;;;15.40;4.13;;;;;;;12.42;70.21;100272.69;5080528;28;20028;-72
2023/05/19 05:05:21;;;;;;;13.20;3.90;;;;;;;12.42;69.80;100272.69;5091853;28;20028;-72
2023/05/19 05:07:48;;;;;;;11.67;4.43;;;;;;;12.40;70.57;100282.41;5081535;28;20029;-72
2023/05/19 05:10:13;;;;;;;10.48;3.53;;;;;;;12.41;70.11;100278.88;5087225;28;20028;-72
2023/05/19 05:12:39;;;;;;;11.25;3.28;;;;;;;12.40;70.11;100277.13;5079931;28;20028;-72
2023/05/19 05:15:05;;;;;;;10.67;3.60;;;;;;;12.43;70.14;100282.41;5079713;28;20058;-72
2023/05/19 05:17:32;;;;;;;10.48;3.42;;;;;;;12.43;70.29;100290.31;5080146;28;20024;-72
2023/05/19 05:19:58;;;;;;;10.25;3.40;;;;;;;12.43;69.93;100288.53;5093546;28;20507;-72
2023/05/19 05:22:23;;;;;;;10.17;3.57;;;;;;;12.44;70.11;100289.44;5080066;28;20427;-72
2023/05/19 05:24:49;;;;;;;11.20;3.22;;;;;;;12.43;69.97;100277.97;5079989;28;20068;-72
2023/05/19 05:27:15;;;;;;;8.57;3.25;;;;;;;12.45;69.90;100283.25;5078360;28;20058;-72
2023/05/19 05:29:40;;;;;;;10.37;3.60;;;;;;;12.47;70.07;100284.09;5100164;28;20038;-72
2023/05/19 05:32:06;;;;;;;14.57;3.60;;;;;;;12.48;70.05;100285.84;5099932;28;20024;-72
2023/05/19 05:34:32;;;;;;;12.93;3.28;;;;;;;12.50;69.92;100284.06;5100096;28;20047;-72
2023/05/19 05:36:57;;;;;;;13.87;3.50;;;;;;;12.53;69.85;100289.31;5100287;28;20498;-72
2023/05/19 05:39:23;;;;;;;8.95;3.30;;;;;;;12.51;70.04;100291.09;5099938;28;20507;-72
2023/05/19 05:41:48;;;;;;;12.50;4.23;;;;;;;12.52;70.27;100286.66;5088523;28;20112;-72
2023/05/19 05:44:14;;;;;;;12.40;3.30;;;;;;;12.51;69.68;100290.22;5087278;28;20036;-72
2023/05/19 05:46:39;;;;;;;11.37;3.83;;;;;;;12.52;70.00;100287.56;5080728;28;20063;-72
2023/05/19 05:49:05;;;;;;;9.57;3.80;;;;;;;12.53;70.00;100299.00;5081022;28;20412;-72
2023/05/19 05:51:31;;;;;;;10.03;3.53;;;;;;;12.54;69.83;100300.72;5083962;28;20023;-72
2023/05/19 05:53:58;;;;;;;10.85;4.00;;;;;;;12.55;69.94;100298.09;5081495;28;20035;-72
2023/05/19 05:56:25;;;;;;;12.07;3.80;;;;;;;12.56;69.60;100293.69;5087889;28;20036;-72
2023/05/19 05:58:50;;;;;;;9.27;3.50;;;;;;;12.56;69.93;100298.97;5078288;28;20028;-72
2023/05/19 06:01:16;;;;;;;10.60;3.27;;;;;;;12.58;69.86;100291.91;5076845;28;20044;-72
2023/05/19 06:03:43;;;;;;;12.90;3.47;;;;;;;12.60;69.71;100296.25;5082670;28;20299;-72
2023/05/19 06:06:10;;;;;;;9.07;3.10;;;;;;;12.61;69.55;100298.00;5084272;28;20077;-72
2023/05/19 06:08:35;;;;;;;9.63;3.50;;;;;;;12.62;69.52;100301.53;5078970;28;20064;-72
2023/05/19 06:11:07;;;;;;;14.57;4.07;;;;;;;12.62;69.94;100304.19;5083480;28;20077;-72
2023/05/19 06:13:33;;;;;;;9.95;3.38;;;;;;;12.60;69.81;100300.69;5077985;28;20032;-72
2023/05/19 06:15:58;;;;;;;9.68;3.65;;;;;;;12.60;69.63;100304.19;5077988;28;20029;-72
2023/05/19 06:18:24;;;;;;;13.70;3.80;;;;;;;12.60;69.86;100303.31;5076558;28;20024;-72
2023/05/19 06:20:49;;;;;;;10.87;3.57;;;;;;;12.60;69.44;100296.25;5077943;28;20020;-72
2023/05/19 06:23:15;;;;;;;12.80;3.37;;;;;;;12.59;69.76;100305.06;5077749;28;20029;-73
2023/05/19 06:25:40;;;;;;;12.95;3.80;;;;;;;12.59;69.53;100304.22;5095810;28;20843;-72
2023/05/19 06:28:05;;;;;;;14.20;3.40;;;;;;;12.57;69.56;100296.31;5091951;28;20056;-72
2023/05/19 06:30:31;;;;;;;9.20;3.60;;;;;;;12.61;69.35;100303.28;5077705;28;20059;-72
2023/05/19 06:32:57;;;;;;;9.60;3.43;;;;;;;12.61;69.36;100303.28;5076376;28;20044;-73
2023/05/19 06:35:22;;;;;;;12.60;3.50;;;;;;;12.66;69.39;100302.34;5077684;28;20263;-72
2023/05/19 06:37:47;;;;;;;13.47;3.70;;;;;;;12.69;69.42;100305.00;5076291;28;20024;-73
2023/05/19 06:40:13;;;;;;;9.37;3.50;;;;;;;12.69;68.97;100300.56;5083856;28;20036;-73
2023/05/19 06:42:38;;;;;;;8.77;3.45;;;;;;;12.69;68.81;100303.19;5078597;28;20155;-73
2023/05/19 06:45:04;;;;;;;9.27;3.23;;;;;;;12.68;68.89;100308.53;5077492;28;20396;-73
2023/05/19 06:47:30;;;;;;;10.63;3.38;;;;;;;12.69;69.08;100297.06;5084385;28;20069;-73
2023/05/19 06:49:55;;;;;;;10.30;3.30;;;;;;;12.66;68.99;100295.31;5053999;28;1272877;-73
2023/05/19 06:52:21;;;;;;;9.33;3.50;;;;;;;12.64;69.08;100290.03;5089718;28;20032;-73
2023/05/19 06:54:48;;;;;;;13.05;3.40;;;;;;;12.63;68.87;100290.94;5085753;28;20032;-73
2023/05/19 06:57:13;;;;;;;10.57;3.00;;;;;;;12.64;69.06;100290.03;5080035;28;20092;-73
2023/05/19 06:59:42;;;;;;;9.20;3.17;;;;;;;12.67;68.92;100301.50;5098489;28;20028;-73
2023/05/19 07:02:08;;;;;;;8.82;3.28;;;;;;;12.68;68.61;100297.97;5097795;28;20081;-73
2023/05/19 07:04:35;;;;;;;10.23;3.47;;;;;;;12.63;68.45;100298.00;5089724;28;20039;-73
2023/05/19 07:07:00;;;;;;;11.57;3.30;;;;;;;12.59;68.90;100297.16;5095016;28;20047;-72
2023/05/19 07:09:26;;;;;;;10.33;3.47;;;;;;;12.59;68.57;100297.16;5082192;28;20028;-72
2023/05/19 07:11:51;;;;;;;8.23;3.30;;;;;;;12.60;68.61;100298.91;5079309;28;20067;-72
2023/05/19 07:14:16;;;;;;;11.70;3.37;;;;;;;12.61;68.18;100290.09;5077747;28;20024;-72
2023/05/19 07:16:42;;;;;;;9.98;3.60;;;;;;;12.59;68.32;100286.59;5077835;28;20033;-72
2023/05/19 07:19:07;;;;;;;9.47;3.60;;;;;;;12.60;68.53;100290.13;5077195;28;20478;-72
2023/05/19 07:21:32;;;;;;;12.33;3.70;;;;;;;12.63;68.21;100295.38;5092882;28;20376;-72
2023/05/19 07:23:58;;;;;;;15.87;3.53;;;;;;;12.67;68.57;100290.94;5098136;28;20028;-72
2023/05/19 07:26:23;;;;;;;11.80;4.13;;;;;;;12.67;68.28;100291.78;5097824;28;20052;-72
2023/05/19 07:28:49;;;;;;;11.47;3.77;;;;;;;12.70;68.30;100290.88;5096006;28;20278;-72
2023/05/19 07:31:14;;;;;;;12.10;3.60;;;;;;;12.69;68.39;100292.63;5096532;28;20028;-73
2023/05/19 07:33:40;;;;;;;11.73;3.40;;;;;;;12.64;68.28;100291.81;5097889;28;20017;-72
2023/05/19 07:36:05;;;;;;;10.27;3.53;;;;;;;12.61;68.54;100291.88;5096556;28;20023;-73
2023/05/19 07:38:33;;;;;;;10.27;3.23;;;;;;;12.59;68.46;100304.22;5096007;28;20053;-72
2023/05/19 07:41:00;;;;;;;8.68;3.40;;;;;;;12.61;68.40;100298.00;5092820;28;20020;-73
2023/05/19 07:43:25;;;;;;;13.93;3.50;;;;;;;12.59;68.34;100299.78;5076849;28;20029;-73
2023/05/19 07:45:52;;;;;;;12.97;3.60;;;;;;;12.58;68.21;100298.03;5076012;28;20020;-73
2023/05/19 07:48:20;;;;;;;10.57;3.25;;;;;;;12.59;68.24;100293.66;5079573;28;20040;-72
2023/05/19 07:50:45;;;;;;;12.05;4.00;;;;;;;12.61;68.41;100302.44;5077408;28;20060;-73
2023/05/19 07:53:11;;;;;;;10.00;3.27;;;;;;;12.62;68.37;100299.75;5085441;28;20063;-73
2023/05/19 07:55:36;;;;;;;11.57;3.73;;;;;;;12.62;68.48;100291.84;5079380;28;20051;-72
2023/05/19 07:58:01;;;;;;;8.07;3.17;;;;;;;12.67;68.51;100290.94;5076135;28;20082;-72
2023/05/19 08:00:27;;;;;;;13.33;3.70;;;;;;;12.70;68.27;100288.25;5084440;28;20039;-72
2023/05/19 08:02:52;;;;;;;10.30;3.40;;;;;;;12.73;67.93;100290.84;5083593;28;20475;-72
2023/05/19 08:05:18;;;;;;;8.43;3.33;;;;;;;12.77;67.93;100287.25;5088408;28;20028;-74
2023/05/19 08:07:43;;;;;;;10.73;3.70;;;;;;;12.77;67.88;100287.25;5084663;28;20083;-73
2023/05/19 08:10:09;;;;;;;11.93;3.70;;;;;;;12.78;67.20;100299.56;5087289;28;20392;-73
2023/05/19 08:12:34;;;;;;;9.70;3.60;;;;;;;12.74;67.55;100298.72;5085659;28;20469;-73
2023/05/19 08:15:00;;;;;;;10.50;3.13;;;;;;;12.73;67.34;100301.41;5076573;28;20484;-73
2023/05/19 08:17:25;;;;;;;11.65;3.63;;;;;;;12.72;67.33;100305.81;5079970;28;20016;-73
2023/05/19 08:19:52;;;;;;;9.13;3.30;;;;;;;12.73;67.66;100311.97;5080981;28;20024;-71
2023/05/19 08:22:17;;;;;;;8.70;3.28;;;;;;;12.75;67.73;100310.19;5085234;28;20020;-71
2023/05/19 08:24:43;;;;;;;14.00;3.40;;;;;;;12.77;67.49;100313.69;5084164;28;20492;-72
2023/05/19 08:27:08;;;;;;;10.00;3.17;;;;;;;12.79;67.29;100322.47;5082353;28;20083;-72
2023/05/19 08:29:35;;;;;;;11.07;3.40;;;;;;;12.86;67.16;100326.78;5074787;28;20114;-71
2023/05/19 08:32:01;;;;;;;12.55;3.80;;;;;;;12.96;67.08;100326.66;5076211;28;20021;-70
2023/05/19 08:34:27;;;;;;;9.23;3.10;;;;;;;13.05;66.81;100321.25;5074918;28;20031;-70
2023/05/19 08:36:52;;;;;;;11.40;3.40;;;;;;;13.18;66.65;100325.50;5076300;28;20103;-70
2023/05/19 08:39:22;;;;;;;14.27;3.77;;;;;;;13.30;66.86;100319.16;5074987;28;20086;-70
2023/05/19 08:41:48;;;;;;;10.75;3.25;;;;;;;13.43;66.07;100313.69;5082820;28;20028;-71
2023/05/19 08:44:14;;;;;;;10.13;2.97;;;;;;;13.52;65.64;100315.34;5083695;28;20067;-70
2023/05/19 08:46:40;;;;;;;9.13;3.20;;;;;;;13.54;64.94;100316.19;5094662;28;20016;-70
2023/05/19 08:49:12;;;;;;;11.35;3.38;;;;;;;13.62;65.04;100306.34;5080774;28;20492;-71
2023/05/19 08:51:49;;;;;;;9.90;3.30;;;;;;;13.72;64.15;100307.97;5087418;28;20028;-71
2023/05/19 08:54:15;;;;;;;9.55;3.10;;;;;;;13.85;64.36;100313.03;5090155;28;20017;-68
2023/05/19 08:56:45;;;;;;;8.80;3.03;;;;;;;13.92;64.22;100307.59;5077106;28;20028;-70
2023/05/19 08:59:13;;;;;;;7.07;2.80;;;;;;;14.03;64.09;100310.06;5076589;28;20020;-72
2023/05/19 09:01:44;;;;;;;8.35;2.92;;;;;;;14.13;63.73;100309.94;5076215;28;20033;-71
2023/05/19 09:04:10;;;;;;;10.38;2.88;;;;;;;14.18;63.33;100308.91;5084997;28;20488;-71
2023/05/19 09:06:35;;;;;;;10.00;3.77;;;;;;;14.24;62.78;100297.34;5080383;28;20020;-72
2023/05/19 09:09:01;;;;;;;15.37;3.40;;;;;;;14.31;62.44;100298.09;5076408;28;20078;-72
2023/05/19 09:11:26;;;;;;;13.07;3.27;;;;;;;14.42;62.52;100303.19;5085481;28;20261;-72
2023/05/19 09:13:51;;;;;;;8.07;3.20;;;;;;;14.54;62.05;100299.44;5093096;28;20080;-75
2023/05/19 09:16:17;;;;;;;11.50;3.50;;;;;;;14.62;61.72;100308.97;5096369;28;20024;-72
2023/05/19 09:18:56;;;;;;;10.40;3.00;;;;;;;14.66;61.17;100303.63;5096500;28;20515;-71
2023/05/19 09:21:31;;;;;;;14.63;2.90;;;;;;;14.65;60.66;100302.72;5094904;28;20024;-73
2023/05/19 09:24:02;;;;;;;9.88;2.95;;;;;;;14.65;61.01;100292.13;5093537;28;20028;-72
2023/05/19 09:26:41;;;;;;;9.73;2.70;;;;;;;14.67;61.00;100295.63;5076014;28;20029;-72
2023/05/19 09:29:14;;;;;;;11.02;2.88;;;;;;;14.75;61.06;100298.16;5076008;28;20033;-73
2023/05/19 09:31:54;;;;;;;10.10;2.97;;;;;;;14.80;60.55;100288.31;5084066;28;20391;-72
2023/05/19 09:34:21;;;;;;;10.05;2.72;;;;;;;14.86;60.69;100293.50;5096294;28;20020;-73
2023/05/19 09:36:53;;;;;;;9.70;3.22;;;;;;;14.89;60.61;100296.09;5094974;28;20111;-73
2023/05/19 09:39:20;;;;;;;9.00;2.92;;;;;;;14.89;60.16;100290.78;5095242;28;20476;-73
2023/05/19 09:41:49;;;;;;;10.90;3.10;;;;;;;14.90;60.36;100292.53;5092128;28;20028;-73
2023/05/19 09:44:22;;;;;;;9.37;2.57;;;;;;;14.93;60.11;100287.16;5080536;28;20373;-73
2023/05/19 09:46:51;;;;;;;10.57;3.15;;;;;;;15.06;59.77;100284.22;5082220;28;20047;-73
2023/05/19 09:49:21;;;;;;;7.90;2.78;;;;;;;15.16;59.51;100288.44;5083999;28;20040;-73
2023/05/19 09:51:57;;;;;;;8.95;3.03;;;;;;;15.24;59.28;100282.06;5087348;28;20035;-73
2023/05/19 09:54:23;;;;;;;10.27;2.90;;;;;;;15.28;59.06;100289.94;5083194;28;20074;-73
2023/05/19 09:56:57;;;;;;;11.80;3.10;;;;;;;15.24;58.94;100287.38;5126393;27;20096;-73
2023/05/19 09:59:24;;;;;;;10.07;3.03;;;;;;;15.25;59.31;100276.75;5096027;28;20017;-73
2023/05/19 10:01:53;;;;;;;9.85;2.80;;;;;;;15.33;58.78;100287.19;5104038;28;20058;-73
2023/05/19 10:04:20;;;;;;;9.15;2.90;;;;;;;15.39;58.37;100283.47;5096916;28;20058;-73
2023/05/19 10:06:52;;;;;;;12.00;2.72;;;;;;;15.45;58.86;100278.91;5100887;28;20029;-73
2023/05/19 10:09:26;;;;;;;12.93;3.10;;;;;;;15.53;58.48;100283.16;5097795;28;20024;-73
2023/05/19 10:11:53;;;;;;;11.02;3.00;;;;;;;15.58;57.93;100281.28;5088688;28;20020;-73
2023/05/19 10:14:25;;;;;;;11.98;2.97;;;;;;;15.61;58.08;100278.53;5105647;28;20060;-73
2023/05/19 10:16:52;;;;;;;6.85;2.80;;;;;;;15.64;57.75;100278.47;5093840;28;20023;-73
2023/05/19 10:19:25;;;;;;;8.48;3.05;;;;;;;15.64;58.05;100273.16;5086128;28;20511;-73
2023/05/19 10:21:51;;;;;;;12.73;3.20;;;;;;;15.72;57.66;100276.47;5087463;28;20019;-73
2023/05/19 10:24:17;;;;;;;9.75;2.60;;;;;;;15.73;57.64;100272.91;5100601;28;20482;-73
2023/05/19 10:26:47;;;;;;;9.88;2.90;;;;;;;15.79;57.36;100272.78;5087110;28;20039;-73
2023/05/19 10:29:19;;;;;;;9.88;2.85;;;;;;;15.84;57.35;100271.78;5080405;28;20507;-73
2023/05/19 10:31:46;;;;;;;7.85;2.65;;;;;;;15.91;57.11;100265.41;5085270;28;20026;-73
2023/05/19 10:34:28;;;;;;;8.83;2.90;;;;;;;15.99;57.39;100268.72;5097175;28;20012;-73
2023/05/19 10:37:28;;;;;;;9.50;2.72;;;;;;;16.10;56.43;100272.91;5081689;28;20110;-74
2023/05/19 10:39:54;;;;;;;8.10;2.70;;;;;;;16.23;56.60;100265.47;5082310;28;20094;-76
2023/05/19 10:42:39;;;;;;;7.43;2.78;;;;;;;16.26;56.09;100266.25;5090852;28;20024;-74
2023/05/19 10:45:20;;;;;;;8.13;2.90;;;;;;;16.27;55.69;100267.97;5097808;28;20028;-71
2023/05/19 10:47:46;;;;;;;11.43;4.47;;;;;;;16.24;56.43;100261.91;5089390;28;20097;-70
2023/05/19 10:50:11;;;;;;;8.15;2.88;;;;;;;16.17;56.50;100264.72;5084775;28;20028;-71
2023/05/19 10:52:38;;;;;;;10.23;2.80;;;;;;;16.18;57.13;100263.81;5087530;28;20059;-73
2023/05/19 10:55:07;;;;;;;8.25;2.97;;;;;;;16.23;56.85;100261.00;5088723;28;20023;-71
2023/05/19 10:57:32;;;;;;;9.97;3.17;;;;;;;16.30;57.33;100262.59;5083144;28;20020;-73
2023/05/19 11:00:09;;;;;;;10.15;3.42;;;;;;;16.32;56.99;100254.56;5077960;28;20100;-75
2023/05/19 11:02:36;;;;;;;9.65;3.42;;;;;;;16.31;57.51;100264.34;5083424;28;20050;-70
2023/05/19 11:05:08;;;;;;;8.37;3.20;;;;;;;16.29;56.58;100259.97;5088304;28;20092;-76
2023/05/19 11:07:33;;;;;;;11.70;3.33;;;;;;;16.27;57.49;100257.34;5092338;28;20507;-74
2023/05/19 11:10:05;;;;;;;10.00;3.20;;;;;;;16.26;57.68;100258.28;5084716;28;20040;-79
2023/05/19 11:12:39;;;;;;;9.73;3.35;;;;;;;16.17;57.74;100253.22;5091105;28;20051;-71
2023/05/19 11:15:08;;;;;;;10.60;3.20;;;;;;;16.12;57.92;100253.34;5079479;28;20370;-72
2023/05/19 11:17:34;;;;;;;7.85;3.50;;;;;;;16.00;58.68;100248.38;5092720;28;20686;-70
2023/05/19 11:20:00;;;;;;;10.77;3.00;;;;;;;15.91;59.24;100253.03;5083914;28;20435;-72
2023/05/19 11:22:26;;;;;;;10.50;3.70;;;;;;;15.85;59.99;100245.16;5090464;28;20099;-77